^^
Station Historical Data
 
Daily Summary for September 20, 2017 Units:  English    Metric   Both
« Previous Day
Next Day »
Daily Weekly Monthly Yearly Custom
  Current: High: Low: Average:
Temperature: 60.1 °F 63.7 °F 58.8 °F 60.3 °F
Dew Point: 59.7 °F 62.6 °F 58.5 °F 59.8 °F
Humidity: 99% 99% 96% 98%
Wind Speed: 0.0mph 0.0mph 0.0mph 0mph
Wind Gust: 0.0mph 0.0mph - -
WindCalm - - North
Pressure: 30.17 in 30.17 in 30.11 in -
Precipitation: 0.00 in      
Historical Graphs
 
 
Tabular Data for September 20, 2017
Time Temperature Dew Point Pressure Wind Wind Speed Wind Gust Humidity Rainfall Rate (Hourly)
00:04 63.7 °F 62.6 °F 30.11 in Calm     96% 0.00 in
00:09 63.7 °F 62.6 °F 30.11 in Calm     96% 0.00 in
00:14 63.3 °F 62.2 °F 30.11 in Calm     96% 0.00 in
00:19 63.3 °F 62.2 °F 30.12 in Calm     96% 0.00 in
00:24 63.0 °F 61.9 °F 30.11 in Calm     96% 0.00 in
00:29 63.0 °F 61.9 °F 30.12 in Calm     96% 0.00 in
00:34 63.0 °F 62.1 °F 30.12 in Calm     97% 0.00 in
00:39 62.8 °F 61.9 °F 30.12 in Calm     97% 0.00 in
00:44 62.6 °F 61.7 °F 30.12 in Calm     97% 0.00 in
00:49 62.4 °F 61.5 °F 30.12 in Calm     97% 0.00 in
00:54 62.4 °F 61.5 °F 30.12 in Calm     97% 0.00 in
01:00 62.2 °F 61.3 °F 30.12 in Calm     97% 0.00 in
01:05 62.1 °F 61.2 °F 30.12 in Calm     97% 0.00 in
01:10 62.1 °F 61.2 °F 30.12 in Calm     97% 0.00 in
01:15 62.1 °F 61.5 °F 30.12 in Calm     98% 0.00 in
01:20 62.1 °F 61.5 °F 30.13 in Calm     98% 0.00 in
01:25 62.1 °F 61.5 °F 30.12 in Calm     98% 0.00 in
01:30 61.9 °F 61.3 °F 30.12 in Calm     98% 0.00 in
01:35 61.7 °F 60.8 °F 30.12 in Calm     97% 0.00 in
01:40 61.3 °F 60.4 °F 30.12 in Calm     97% 0.00 in
01:45 61.3 °F 60.8 °F 30.12 in Calm     98% 0.00 in
01:50 61.3 °F 60.8 °F 30.12 in Calm     98% 0.00 in
01:55 61.2 °F 60.6 °F 30.12 in Calm     98% 0.00 in
02:00 61.0 °F 60.4 °F 30.12 in Calm     98% 0.00 in
02:05 61.2 °F 60.6 °F 30.12 in Calm     98% 0.00 in
02:10 61.2 °F 60.6 °F 30.12 in Calm     98% 0.00 in
02:15 61.0 °F 60.4 °F 30.12 in Calm     98% 0.00 in
02:20 60.6 °F 60.1 °F 30.12 in Calm     98% 0.00 in
02:25 60.6 °F 60.1 °F 30.12 in Calm     98% 0.00 in
02:30 60.4 °F 59.9 °F 30.12 in Calm     98% 0.00 in
02:35 60.4 °F 59.9 °F 30.12 in Calm     98% 0.00 in
02:40 60.4 °F 59.9 °F 30.12 in Calm     98% 0.00 in
02:45 60.4 °F 59.9 °F 30.11 in Calm     98% 0.00 in
02:50 60.4 °F 59.9 °F 30.11 in Calm     98% 0.00 in
02:55 60.4 °F 59.9 °F 30.11 in Calm     98% 0.00 in
03:00 60.4 °F 59.9 °F 30.11 in Calm     98% 0.00 in
03:05 60.3 °F 59.7 °F 30.11 in Calm     98% 0.00 in
03:10 60.3 °F 59.7 °F 30.11 in Calm     98% 0.00 in
03:15 60.1 °F 59.5 °F 30.11 in Calm     98% 0.00 in
03:20 60.1 °F 59.5 °F 30.11 in Calm     98% 0.00 in
03:25 59.9 °F 59.4 °F 30.11 in Calm     98% 0.00 in
03:30 59.7 °F 59.2 °F 30.11 in Calm     98% 0.00 in
03:35 59.7 °F 59.2 °F 30.11 in Calm     98% 0.00 in
03:40 59.7 °F 59.2 °F 30.11 in Calm     98% 0.00 in
03:45 59.7 °F 59.4 °F 30.11 in Calm     99% 0.00 in
03:50 59.7 °F 59.4 °F 30.11 in Calm     99% 0.00 in
03:56 59.7 °F 59.4 °F 30.11 in Calm     99% 0.00 in
04:01 59.7 °F 59.4 °F 30.11 in Calm     99% 0.00 in
04:06 59.7 °F 59.4 °F 30.11 in Calm     99% 0.00 in
04:11 59.7 °F 59.4 °F 30.11 in Calm     99% 0.00 in
04:16 59.7 °F 59.4 °F 30.11 in Calm     99% 0.00 in
04:21 59.7 °F 59.4 °F 30.11 in Calm     99% 0.00 in
04:26 59.7 °F 59.4 °F 30.11 in Calm     99% 0.00 in
04:31 59.7 °F 59.4 °F 30.11 in Calm     99% 0.00 in
04:36 59.7 °F 59.4 °F 30.11 in Calm     99% 0.00 in
04:41 59.7 °F 59.4 °F 30.12 in Calm     99% 0.00 in
04:46 59.7 °F 59.4 °F 30.12 in Calm     99% 0.00 in
04:51 59.7 °F 59.4 °F 30.12 in Calm     99% 0.00 in
04:56 59.7 °F 59.4 °F 30.12 in Calm     99% 0.00 in
04:57 59.7 °F 59.4 °F 30.12 in Calm     99% 0.00 in
05:02 59.9 °F 59.5 °F 30.12 in Calm     99% 0.00 in
05:07 59.7 °F 59.4 °F 30.12 in Calm     99% 0.00 in
05:12 59.7 °F 59.4 °F 30.12 in Calm     99% 0.00 in
05:17 59.9 °F 59.5 °F 30.12 in Calm     99% 0.00 in
05:22 59.7 °F 59.4 °F 30.12 in Calm     99% 0.00 in
05:27 59.7 °F 59.4 °F 30.12 in Calm     99% 0.00 in
05:32 59.7 °F 59.4 °F 30.12 in Calm     99% 0.00 in
05:37 59.7 °F 59.4 °F 30.13 in Calm     99% 0.00 in
05:42 59.7 °F 59.4 °F 30.12 in Calm     99% 0.00 in
05:47 59.7 °F 59.4 °F 30.12 in Calm     99% 0.00 in
05:52 59.7 °F 59.4 °F 30.12 in Calm     99% 0.00 in
05:57 59.7 °F 59.4 °F 30.12 in Calm     99% 0.00 in
06:02 59.5 °F 59.2 °F 30.12 in Calm     99% 0.00 in
06:07 59.5 °F 59.2 °F 30.12 in Calm     99% 0.00 in
06:12 59.5 °F 59.2 °F 30.13 in Calm     99% 0.00 in
06:17 59.5 °F 59.2 °F 30.13 in Calm     99% 0.00 in
06:22 59.4 °F 59.0 °F 30.13 in Calm     99% 0.00 in
06:27 59.4 °F 59.0 °F 30.13 in Calm     99% 0.00 in
06:33 59.4 °F 59.0 °F 30.13 in Calm     99% 0.00 in
06:38 59.4 °F 59.0 °F 30.14 in Calm     99% 0.00 in
06:43 59.4 °F 59.0 °F 30.14 in Calm     99% 0.00 in
06:48 59.2 °F 58.8 °F 30.14 in Calm     99% 0.00 in
06:53 59.2 °F 58.8 °F 30.14 in Calm     99% 0.00 in
06:58 59.2 °F 58.8 °F 30.14 in Calm     99% 0.00 in
07:03 59.2 °F 58.8 °F 30.14 in Calm     99% 0.00 in
07:08 59.2 °F 58.8 °F 30.14 in Calm     99% 0.00 in
07:13 59.0 °F 58.6 °F 30.14 in Calm     99% 0.00 in
07:18 58.8 °F 58.5 °F 30.14 in Calm     99% 0.00 in
07:23 58.8 °F 58.5 °F 30.14 in Calm     99% 0.00 in
07:28 58.8 °F 58.5 °F 30.14 in Calm     99% 0.00 in
07:33 58.8 °F 58.5 °F 30.14 in Calm     99% 0.00 in
07:38 58.8 °F 58.5 °F 30.15 in Calm     99% 0.00 in
07:44 58.8 °F 58.5 °F 30.15 in Calm     99% 0.00 in
07:48 59.0 °F 58.6 °F 30.15 in Calm     99% 0.00 in
07:54 59.0 °F 58.6 °F 30.16 in Calm     99% 0.00 in
07:59 59.2 °F 58.8 °F 30.16 in Calm     99% 0.00 in
08:04 59.2 °F 58.8 °F 30.16 in Calm     99% 0.00 in
08:09 59.2 °F 58.8 °F 30.16 in Calm     99% 0.00 in
08:14 59.4 °F 59.0 °F 30.16 in Calm     99% 0.00 in
08:19 59.4 °F 59.0 °F 30.16 in Calm     99% 0.00 in
08:24 59.4 °F 59.0 °F 30.17 in Calm     99% 0.00 in
08:29 59.4 °F 59.0 °F 30.17 in Calm     99% 0.00 in
08:34 59.4 °F 59.0 °F 30.17 in Calm     99% 0.00 in
08:39 59.5 °F 59.2 °F 30.17 in Calm     99% 0.00 in
08:44 59.7 °F 59.4 °F 30.17 in Calm     99% 0.00 in
08:49 59.7 °F 59.4 °F 30.17 in Calm     99% 0.00 in
08:54 59.9 °F 59.5 °F 30.17 in Calm     99% 0.00 in
08:59 60.1 °F 59.7 °F 30.17 in Calm     99% 0.00 in
WheeWeather.com
Compliments of Weather Underground - 1.5 mb